sensor_id;sensor_type;location;lat;lon;timestamp;pressure;altitude;pressure_sealevel;temperature;humidity
24858;BME280;12935;50.782;6.074;2023-08-01T00:01:22;97917.81;;;17.66;100.00
24858;BME280;12935;50.782;6.074;2023-08-01T00:03:47;97909.44;;;17.61;100.00
24858;BME280;12935;50.782;6.074;2023-08-01T00:06:12;97900.19;;;17.78;100.00
24858;BME280;12935;50.782;6.074;2023-08-01T00:08:38;97909.44;;;17.96;100.00
24858;BME280;12935;50.782;6.074;2023-08-01T00:11:03;97892.94;;;18.01;100.00
24858;BME280;12935;50.782;6.074;2023-08-01T00:13:28;97887.34;;;17.96;100.00
24858;BME280;12935;50.782;6.074;2023-08-01T00:15:54;97888.56;;;17.95;100.00
24858;BME280;12935;50.782;6.074;2023-08-01T00:18:19;97879.31;;;17.98;100.00
24858;BME280;12935;50.782;6.074;2023-08-01T00:20:44;97887.34;;;17.75;100.00
24858;BME280;12935;50.782;6.074;2023-08-01T00:23:10;97886.88;;;17.62;100.00
24858;BME280;12935;50.782;6.074;2023-08-01T00:25:35;97886.22;;;17.52;100.00
24858;BME280;12935;50.782;6.074;2023-08-01T00:28:00;97876.69;;;17.68;100.00
24858;BME280;12935;50.782;6.074;2023-08-01T00:30:26;97874.47;;;17.72;100.00
24858;BME280;12935;50.782;6.074;2023-08-01T00:32:51;97873.34;;;17.64;100.00
24858;BME280;12935;50.782;6.074;2023-08-01T00:35:16;97862.88;;;17.68;100.00
24858;BME280;12935;50.782;6.074;2023-08-01T00:37:42;97879.06;;;17.61;100.00
24858;BME280;12935;50.782;6.074;2023-08-01T00:40:08;97869.00;;;17.43;100.00
24858;BME280;12935;50.782;6.074;2023-08-01T00:42:36;97871.41;;;17.21;100.00
24858;BME280;12935;50.782;6.074;2023-08-01T00:45:02;97861.25;;;17.12;100.00
24858;BME280;12935;50.782;6.074;2023-08-01T00:47:28;97866.09;;;17.02;100.00
24858;BME280;12935;50.782;6.074;2023-08-01T00:49:53;97863.63;;;16.90;100.00
24858;BME280;12935;50.782;6.074;2023-08-01T00:52:18;97866.97;;;16.79;100.00
24858;BME280;12935;50.782;6.074;2023-08-01T00:54:43;97857.06;;;16.72;100.00
24858;BME280;12935;50.782;6.074;2023-08-01T00:57:09;97868.00;;;16.67;100.00
24858;BME280;12935;50.782;6.074;2023-08-01T00:59:35;97872.47;;;16.64;100.00
24858;BME280;12935;50.782;6.074;2023-08-01T01:02:00;97858.69;;;16.64;100.00
24858;BME280;12935;50.782;6.074;2023-08-01T01:04:26;97851.47;;;16.67;100.00
24858;BME280;12935;50.782;6.074;2023-08-01T01:06:57;97822.91;;;16.70;100.00
24858;BME280;12935;50.782;6.074;2023-08-01T01:09:28;97821.88;;;16.67;100.00
24858;BME280;12935;50.782;6.074;2023-08-01T01:11:53;97837.44;;;16.56;100.00
24858;BME280;12935;50.782;6.074;2023-08-01T01:14:19;97836.19;;;16.42;100.00
24858;BME280;12935;50.782;6.074;2023-08-01T01:16:44;97845.31;;;16.33;100.00
24858;BME280;12935;50.782;6.074;2023-08-01T01:19:09;97853.16;;;16.26;100.00
24858;BME280;12935;50.782;6.074;2023-08-01T01:21:36;97852.78;;;16.18;100.00
24858;BME280;12935;50.782;6.074;2023-08-01T01:24:04;97848.09;;;16.09;100.00
24858;BME280;12935;50.782;6.074;2023-08-01T01:26:33;97859.28;;;16.06;100.00
24858;BME280;12935;50.782;6.074;2023-08-01T01:28:59;97862.31;;;16.08;100.00
24858;BME280;12935;50.782;6.074;2023-08-01T01:31:26;97862.69;;;16.01;100.00
24858;BME280;12935;50.782;6.074;2023-08-01T01:33:54;97856.00;;;15.93;100.00
24858;BME280;12935;50.782;6.074;2023-08-01T01:36:20;97856.53;;;15.82;100.00
24858;BME280;12935;50.782;6.074;2023-08-01T01:38:45;97861.88;;;15.86;100.00
24858;BME280;12935;50.782;6.074;2023-08-01T01:41:10;97863.44;;;15.77;100.00
24858;BME280;12935;50.782;6.074;2023-08-01T01:43:36;97862.75;;;15.68;100.00
24858;BME280;12935;50.782;6.074;2023-08-01T01:46:03;97868.09;;;15.71;100.00
24858;BME280;12935;50.782;6.074;2023-08-01T01:48:28;97862.47;;;15.66;100.00
24858;BME280;12935;50.782;6.074;2023-08-01T01:50:53;97851.16;;;15.64;100.00
24858;BME280;12935;50.782;6.074;2023-08-01T01:53:18;97856.25;;;15.56;100.00
24858;BME280;12935;50.782;6.074;2023-08-01T01:55:44;97859.63;;;15.75;100.00
24858;BME280;12935;50.782;6.074;2023-08-01T01:58:09;97860.59;;;15.72;100.00
24858;BME280;12935;50.782;6.074;2023-08-01T02:00:34;97862.69;;;15.77;100.00
24858;BME280;12935;50.782;6.074;2023-08-01T02:03:00;97860.34;;;15.85;100.00
24858;BME280;12935;50.782;6.074;2023-08-01T02:05:28;97849.69;;;15.77;100.00
24858;BME280;12935;50.782;6.074;2023-08-01T02:07:53;97852.91;;;15.76;100.00
24858;BME280;12935;50.782;6.074;2023-08-01T02:10:18;97853.19;;;15.78;100.00
24858;BME280;12935;50.782;6.074;2023-08-01T02:12:43;97843.88;;;15.75;100.00
24858;BME280;12935;50.782;6.074;2023-08-01T02:15:09;97849.22;;;15.79;100.00
24858;BME280;12935;50.782;6.074;2023-08-01T02:17:34;97848.63;;;15.75;100.00
24858;BME280;12935;50.782;6.074;2023-08-01T02:20:00;97857.44;;;15.88;100.00
24858;BME280;12935;50.782;6.074;2023-08-01T02:22:25;97857.31;;;15.83;100.00
24858;BME280;12935;50.782;6.074;2023-08-01T02:24:51;97855.66;;;15.76;100.00
24858;BME280;12935;50.782;6.074;2023-08-01T02:27:23;71066.53;;;-144.27;100.00
24858;BME280;12935;50.782;6.074;2023-08-01T02:30:11;71066.53;;;-144.27;100.00
24858;BME280;12935;50.782;6.074;2023-08-01T02:32:37;71066.53;;;-144.27;100.00
24858;BME280;12935;50.782;6.074;2023-08-01T02:35:02;97847.81;;;15.84;100.00
24858;BME280;12935;50.782;6.074;2023-08-01T02:37:27;97862.34;;;15.84;100.00
24858;BME280;12935;50.782;6.074;2023-08-01T02:39:53;97862.97;;;15.79;100.00
24858;BME280;12935;50.782;6.074;2023-08-01T02:42:18;97873.84;;;15.83;100.00
24858;BME280;12935;50.782;6.074;2023-08-01T02:44:43;97870.88;;;15.62;100.00
24858;BME280;12935;50.782;6.074;2023-08-01T02:47:09;97870.56;;;15.60;100.00
24858;BME280;12935;50.782;6.074;2023-08-01T02:49:34;97884.66;;;15.62;100.00
24858;BME280;12935;50.782;6.074;2023-08-01T02:51:59;97873.34;;;15.60;100.00
24858;BME280;12935;50.782;6.074;2023-08-01T02:54:24;97881.03;;;15.56;100.00
24858;BME280;12935;50.782;6.074;2023-08-01T02:56:50;97889.41;;;15.53;100.00
24858;BME280;12935;50.782;6.074;2023-08-01T02:59:16;97889.72;;;15.55;100.00
24858;BME280;12935;50.782;6.074;2023-08-01T03:01:43;97884.06;;;15.58;100.00
24858;BME280;12935;50.782;6.074;2023-08-01T03:04:09;97878.28;;;15.47;100.00
24858;BME280;12935;50.782;6.074;2023-08-01T03:06:37;97887.03;;;15.36;100.00
24858;BME280;12935;50.782;6.074;2023-08-01T03:09:02;97887.81;;;15.37;100.00
24858;BME280;12935;50.782;6.074;2023-08-01T03:11:27;97893.00;;;15.35;100.00
24858;BME280;12935;50.782;6.074;2023-08-01T03:13:53;97891.47;;;15.34;100.00
24858;BME280;12935;50.782;6.074;2023-08-01T03:16:18;97887.91;;;15.42;100.00
24858;BME280;12935;50.782;6.074;2023-08-01T03:18:43;97884.75;;;15.35;100.00
24858;BME280;12935;50.782;6.074;2023-08-01T03:21:09;97879.56;;;15.28;100.00
24858;BME280;12935;50.782;6.074;2023-08-01T03:23:34;97878.94;;;15.33;100.00
24858;BME280;12935;50.782;6.074;2023-08-01T03:26:00;97886.75;;;15.34;100.00
24858;BME280;12935;50.782;6.074;2023-08-01T03:28:28;97894.53;;;15.36;100.00
24858;BME280;12935;50.782;6.074;2023-08-01T03:30:54;97890.66;;;15.42;100.00
24858;BME280;12935;50.782;6.074;2023-08-01T03:33:20;97894.47;;;15.45;100.00
24858;BME280;12935;50.782;6.074;2023-08-01T03:35:46;97896.66;;;15.41;100.00
24858;BME280;12935;50.782;6.074;2023-08-01T03:38:11;97888.97;;;15.45;100.00
24858;BME280;12935;50.782;6.074;2023-08-01T03:40:36;97895.59;;;15.38;100.00
24858;BME280;12935;50.782;6.074;2023-08-01T03:43:02;97900.44;;;15.43;100.00
24858;BME280;12935;50.782;6.074;2023-08-01T03:45:27;97896.22;;;15.33;100.00
24858;BME280;12935;50.782;6.074;2023-08-01T03:47:52;97903.44;;;15.22;100.00
24858;BME280;12935;50.782;6.074;2023-08-01T03:50:18;97903.00;;;15.23;100.00
24858;BME280;12935;50.782;6.074;2023-08-01T03:52:43;97914.63;;;15.18;100.00
24858;BME280;12935;50.782;6.074;2023-08-01T03:55:09;97907.94;;;15.10;100.00
24858;BME280;12935;50.782;6.074;2023-08-01T03:57:34;97916.19;;;15.10;100.00
24858;BME280;12935;50.782;6.074;2023-08-01T04:00:00;97909.16;;;15.09;100.00
24858;BME280;12935;50.782;6.074;2023-08-01T04:02:25;97914.47;;;15.13;100.00
24858;BME280;12935;50.782;6.074;2023-08-01T04:04:50;97914.31;;;15.16;100.00
24858;BME280;12935;50.782;6.074;2023-08-01T04:07:15;97919.97;;;15.13;100.00
24858;BME280;12935;50.782;6.074;2023-08-01T04:09:41;97919.97;;;15.22;100.00
24858;BME280;12935;50.782;6.074;2023-08-01T04:12:06;97920.72;;;15.13;100.00
24858;BME280;12935;50.782;6.074;2023-08-01T04:14:33;97921.69;;;15.10;100.00
24858;BME280;12935;50.782;6.074;2023-08-01T04:16:59;97923.81;;;15.06;100.00
24858;BME280;12935;50.782;6.074;2023-08-01T04:19:24;97920.47;;;15.02;100.00
24858;BME280;12935;50.782;6.074;2023-08-01T04:21:50;97921.84;;;15.06;100.00
24858;BME280;12935;50.782;6.074;2023-08-01T04:24:15;97928.06;;;15.16;100.00
24858;BME280;12935;50.782;6.074;2023-08-01T04:26:41;97924.13;;;15.08;100.00
24858;BME280;12935;50.782;6.074;2023-08-01T04:29:06;97932.03;;;15.24;100.00
24858;BME280;12935;50.782;6.074;2023-08-01T04:31:31;97926.84;;;15.17;100.00
24858;BME280;12935;50.782;6.074;2023-08-01T04:33:57;97930.34;;;15.18;100.00
24858;BME280;12935;50.782;6.074;2023-08-01T04:36:22;97930.06;;;15.16;100.00
24858;BME280;12935;50.782;6.074;2023-08-01T04:38:47;97929.44;;;15.12;100.00
24858;BME280;12935;50.782;6.074;2023-08-01T04:41:13;97935.25;;;15.14;100.00
24858;BME280;12935;50.782;6.074;2023-08-01T04:43:38;97931.44;;;15.11;100.00
24858;BME280;12935;50.782;6.074;2023-08-01T04:46:03;97935.41;;;15.19;100.00
24858;BME280;12935;50.782;6.074;2023-08-01T04:48:28;97929.75;;;15.23;100.00
24858;BME280;12935;50.782;6.074;2023-08-01T04:50:54;97931.72;;;15.13;100.00
24858;BME280;12935;50.782;6.074;2023-08-01T04:53:19;97934.03;;;15.15;100.00
24858;BME280;12935;50.782;6.074;2023-08-01T04:55:44;97940.00;;;15.13;100.00
24858;BME280;12935;50.782;6.074;2023-08-01T04:58:10;97941.97;;;15.13;100.00
24858;BME280;12935;50.782;6.074;2023-08-01T05:00:36;97948.22;;;15.22;100.00
24858;BME280;12935;50.782;6.074;2023-08-01T05:03:02;97941.31;;;15.27;100.00
24858;BME280;12935;50.782;6.074;2023-08-01T05:05:27;97931.25;;;15.24;100.00
24858;BME280;12935;50.782;6.074;2023-08-01T05:07:52;97936.88;;;15.38;100.00
24858;BME280;12935;50.782;6.074;2023-08-01T05:10:18;97928.31;;;15.36;100.00
24858;BME280;12935;50.782;6.074;2023-08-01T05:12:43;97946.34;;;15.37;100.00
24858;BME280;12935;50.782;6.074;2023-08-01T05:15:08;97942.22;;;15.42;100.00
24858;BME280;12935;50.782;6.074;2023-08-01T05:17:33;97950.63;;;15.38;100.00
24858;BME280;12935;50.782;6.074;2023-08-01T05:19:59;97940.41;;;15.39;100.00
24858;BME280;12935;50.782;6.074;2023-08-01T05:22:24;97946.50;;;15.34;100.00
24858;BME280;12935;50.782;6.074;2023-08-01T05:24:49;97946.97;;;15.41;100.00
24858;BME280;12935;50.782;6.074;2023-08-01T05:27:15;97944.78;;;15.45;100.00
24858;BME280;12935;50.782;6.074;2023-08-01T05:29:40;97952.59;;;15.47;100.00
24858;BME280;12935;50.782;6.074;2023-08-01T05:32:06;97948.19;;;15.40;100.00
24858;BME280;12935;50.782;6.074;2023-08-01T05:34:31;97957.47;;;15.43;100.00
24858;BME280;12935;50.782;6.074;2023-08-01T05:36:56;97951.06;;;15.55;100.00
24858;BME280;12935;50.782;6.074;2023-08-01T05:39:22;97953.38;;;15.57;100.00
24858;BME280;12935;50.782;6.074;2023-08-01T05:41:47;97950.44;;;15.51;100.00
24858;BME280;12935;50.782;6.074;2023-08-01T05:44:12;97955.63;;;15.49;100.00
24858;BME280;12935;50.782;6.074;2023-08-01T05:46:38;97956.53;;;15.64;100.00
24858;BME280;12935;50.782;6.074;2023-08-01T05:49:03;97955.16;;;15.60;100.00
24858;BME280;12935;50.782;6.074;2023-08-01T05:51:28;97966.91;;;15.69;100.00
24858;BME280;12935;50.782;6.074;2023-08-01T05:53:53;97966.78;;;15.64;100.00
24858;BME280;12935;50.782;6.074;2023-08-01T05:56:19;97965.59;;;15.56;100.00
24858;BME280;12935;50.782;6.074;2023-08-01T05:58:44;97966.47;;;15.62;100.00
24858;BME280;12935;50.782;6.074;2023-08-01T06:01:14;97966.56;;;15.76;100.00
24858;BME280;12935;50.782;6.074;2023-08-01T06:03:39;97970.38;;;15.79;100.00
24858;BME280;12935;50.782;6.074;2023-08-01T06:06:04;97971.81;;;15.65;100.00
24858;BME280;12935;50.782;6.074;2023-08-01T06:08:30;97983.59;;;15.66;100.00
24858;BME280;12935;50.782;6.074;2023-08-01T06:10:55;97978.56;;;15.64;100.00
24858;BME280;12935;50.782;6.074;2023-08-01T06:13:21;97980.25;;;15.53;100.00
24858;BME280;12935;50.782;6.074;2023-08-01T06:15:46;97973.09;;;15.55;100.00
24858;BME280;12935;50.782;6.074;2023-08-01T06:18:11;97969.72;;;15.51;100.00
24858;BME280;12935;50.782;6.074;2023-08-01T06:20:37;97978.91;;;15.39;100.00
24858;BME280;12935;50.782;6.074;2023-08-01T06:23:03;97974.03;;;15.34;100.00
24858;BME280;12935;50.782;6.074;2023-08-01T06:25:28;97971.84;;;15.47;100.00
24858;BME280;12935;50.782;6.074;2023-08-01T06:27:53;97986.22;;;15.60;100.00
24858;BME280;12935;50.782;6.074;2023-08-01T06:30:19;97974.75;;;15.43;100.00
24858;BME280;12935;50.782;6.074;2023-08-01T06:32:44;97981.69;;;15.39;100.00
24858;BME280;12935;50.782;6.074;2023-08-01T06:35:09;97984.88;;;15.56;100.00
24858;BME280;12935;50.782;6.074;2023-08-01T06:37:35;97981.34;;;15.46;100.00
24858;BME280;12935;50.782;6.074;2023-08-01T06:40:00;97987.19;;;15.39;100.00
24858;BME280;12935;50.782;6.074;2023-08-01T06:42:26;97996.06;;;15.34;100.00
24858;BME280;12935;50.782;6.074;2023-08-01T06:44:51;97999.09;;;15.36;100.00
24858;BME280;12935;50.782;6.074;2023-08-01T06:47:17;97998.31;;;15.44;100.00
24858;BME280;12935;50.782;6.074;2023-08-01T06:49:42;98003.38;;;15.55;100.00
24858;BME280;12935;50.782;6.074;2023-08-01T06:52:08;97998.44;;;15.59;100.00
24858;BME280;12935;50.782;6.074;2023-08-01T06:54:34;98002.47;;;15.58;100.00
24858;BME280;12935;50.782;6.074;2023-08-01T06:56:59;98002.47;;;15.58;100.00
24858;BME280;12935;50.782;6.074;2023-08-01T06:59:25;98011.94;;;15.57;100.00
24858;BME280;12935;50.782;6.074;2023-08-01T07:01:51;98015.88;;;15.65;100.00
24858;BME280;12935;50.782;6.074;2023-08-01T07:04:16;98020.78;;;15.52;100.00
24858;BME280;12935;50.782;6.074;2023-08-01T07:06:41;98013.47;;;15.58;100.00
24858;BME280;12935;50.782;6.074;2023-08-01T07:09:07;98015.47;;;15.58;100.00
24858;BME280;12935;50.782;6.074;2023-08-01T07:11:32;98027.81;;;15.62;100.00
24858;BME280;12935;50.782;6.074;2023-08-01T07:13:58;98020.22;;;15.90;100.00
24858;BME280;12935;50.782;6.074;2023-08-01T07:16:23;98029.38;;;16.05;100.00
24858;BME280;12935;50.782;6.074;2023-08-01T07:18:48;98026.41;;;16.09;100.00
24858;BME280;12935;50.782;6.074;2023-08-01T07:21:15;98035.41;;;16.19;100.00
24858;BME280;12935;50.782;6.074;2023-08-01T07:23:40;98036.66;;;16.08;100.00
24858;BME280;12935;50.782;6.074;2023-08-01T07:26:06;98033.91;;;16.08;100.00
24858;BME280;12935;50.782;6.074;2023-08-01T07:28:31;98026.94;;;15.98;100.00
24858;BME280;12935;50.782;6.074;2023-08-01T07:31:05;98039.94;;;15.98;100.00
24858;BME280;12935;50.782;6.074;2023-08-01T07:33:32;98041.63;;;15.95;100.00
24858;BME280;12935;50.782;6.074;2023-08-01T07:35:57;98042.75;;;15.89;100.00
24858;BME280;12935;50.782;6.074;2023-08-01T07:38:23;98044.47;;;16.10;100.00
24858;BME280;12935;50.782;6.074;2023-08-01T07:40:49;98042.09;;;16.27;100.00
24858;BME280;12935;50.782;6.074;2023-08-01T07:43:14;98036.81;;;16.14;100.00
24858;BME280;12935;50.782;6.074;2023-08-01T07:45:40;98047.66;;;16.51;100.00
24858;BME280;12935;50.782;6.074;2023-08-01T07:48:05;98053.63;;;16.49;100.00
24858;BME280;12935;50.782;6.074;2023-08-01T07:50:30;98048.81;;;16.59;100.00
24858;BME280;12935;50.782;6.074;2023-08-01T07:52:56;98055.66;;;16.39;100.00
24858;BME280;12935;50.782;6.074;2023-08-01T07:55:22;98062.84;;;16.46;100.00
24858;BME280;12935;50.782;6.074;2023-08-01T07:57:48;98063.53;;;16.56;100.00
24858;BME280;12935;50.782;6.074;2023-08-01T08:00:13;98064.88;;;16.60;100.00
24858;BME280;12935;50.782;6.074;2023-08-01T08:02:41;98070.25;;;16.64;100.00
24858;BME280;12935;50.782;6.074;2023-08-01T08:05:07;98063.53;;;16.32;100.00
24858;BME280;12935;50.782;6.074;2023-08-01T08:07:32;98058.22;;;16.19;100.00
24858;BME280;12935;50.782;6.074;2023-08-01T08:09:57;98066.97;;;16.41;100.00
24858;BME280;12935;50.782;6.074;2023-08-01T08:12:23;98065.03;;;16.33;100.00
24858;BME280;12935;50.782;6.074;2023-08-01T08:14:48;98066.69;;;16.39;100.00
24858;BME280;12935;50.782;6.074;2023-08-01T08:17:14;98070.97;;;16.40;100.00
24858;BME280;12935;50.782;6.074;2023-08-01T08:19:40;98075.78;;;16.55;100.00
24858;BME280;12935;50.782;6.074;2023-08-01T08:22:05;98073.88;;;16.70;100.00
24858;BME280;12935;50.782;6.074;2023-08-01T08:24:31;98066.22;;;16.98;100.00
24858;BME280;12935;50.782;6.074;2023-08-01T08:26:56;98069.47;;;17.11;100.00
24858;BME280;12935;50.782;6.074;2023-08-01T08:29:21;98075.25;;;16.98;100.00
24858;BME280;12935;50.782;6.074;2023-08-01T08:31:47;98063.78;;;17.14;100.00
24858;BME280;12935;50.782;6.074;2023-08-01T08:34:13;98068.56;;;17.43;100.00
24858;BME280;12935;50.782;6.074;2023-08-01T08:36:38;98058.28;;;17.44;100.00
24858;BME280;12935;50.782;6.074;2023-08-01T08:39:04;98079.63;;;17.43;100.00
24858;BME280;12935;50.782;6.074;2023-08-01T08:41:35;98067.25;;;17.83;100.00
24858;BME280;12935;50.782;6.074;2023-08-01T08:44:06;98067.19;;;17.77;100.00
24858;BME280;12935;50.782;6.074;2023-08-01T08:46:33;98085.47;;;18.04;100.00
24858;BME280;12935;50.782;6.074;2023-08-01T08:49:03;98080.91;;;17.72;100.00
24858;BME280;12935;50.782;6.074;2023-08-01T08:51:29;98076.19;;;17.63;100.00
24858;BME280;12935;50.782;6.074;2023-08-01T08:53:56;98079.94;;;17.60;100.00
24858;BME280;12935;50.782;6.074;2023-08-01T08:56:22;98078.72;;;17.76;100.00
24858;BME280;12935;50.782;6.074;2023-08-01T08:58:48;98075.75;;;17.94;100.00
24858;BME280;12935;50.782;6.074;2023-08-01T09:01:14;98079.00;;;17.78;100.00
24858;BME280;12935;50.782;6.074;2023-08-01T09:03:40;98094.28;;;17.49;100.00
24858;BME280;12935;50.782;6.074;2023-08-01T09:06:15;98080.25;;;17.24;100.00
24858;BME280;12935;50.782;6.074;2023-08-01T09:08:52;98084.59;;;17.83;100.00
24858;BME280;12935;50.782;6.074;2023-08-01T09:11:20;98076.78;;;17.82;100.00
24858;BME280;12935;50.782;6.074;2023-08-01T09:13:47;98085.75;;;17.92;100.00
24858;BME280;12935;50.782;6.074;2023-08-01T09:16:12;98079.28;;;18.09;100.00
24858;BME280;12935;50.782;6.074;2023-08-01T09:18:52;98085.47;;;17.90;100.00
24858;BME280;12935;50.782;6.074;2023-08-01T09:21:19;98084.03;;;17.79;100.00
24858;BME280;12935;50.782;6.074;2023-08-01T09:23:45;98090.59;;;17.82;100.00
24858;BME280;12935;50.782;6.074;2023-08-01T09:26:14;98097.09;;;17.79;100.00
24858;BME280;12935;50.782;6.074;2023-08-01T09:28:39;98093.94;;;18.01;100.00
24858;BME280;12935;50.782;6.074;2023-08-01T09:31:05;98098.22;;;18.16;100.00
24858;BME280;12935;50.782;6.074;2023-08-01T09:33:40;98085.16;;;18.17;100.00
24858;BME280;12935;50.782;6.074;2023-08-01T09:36:07;98086.78;;;18.23;100.00
24858;BME280;12935;50.782;6.074;2023-08-01T09:38:37;98090.22;;;18.18;100.00
24858;BME280;12935;50.782;6.074;2023-08-01T09:41:03;98079.16;;;18.53;100.00
24858;BME280;12935;50.782;6.074;2023-08-01T09:43:36;98075.00;;;18.99;100.00
24858;BME280;12935;50.782;6.074;2023-08-01T09:46:03;98077.53;;;19.22;100.00
24858;BME280;12935;50.782;6.074;2023-08-01T09:48:29;98080.63;;;19.50;100.00
24858;BME280;12935;50.782;6.074;2023-08-01T09:53:32;98093.44;;;19.07;100.00
24858;BME280;12935;50.782;6.074;2023-08-01T09:55:59;98083.63;;;19.26;100.00
24858;BME280;12935;50.782;6.074;2023-08-01T09:58:26;98096.59;;;19.61;100.00
24858;BME280;12935;50.782;6.074;2023-08-01T10:00:55;98086.47;;;19.84;100.00
24858;BME280;12935;50.782;6.074;2023-08-01T10:03:21;98087.03;;;19.16;100.00
24858;BME280;12935;50.782;6.074;2023-08-01T10:05:47;98079.94;;;18.74;100.00
24858;BME280;12935;50.782;6.074;2023-08-01T10:08:12;98087.13;;;18.31;100.00
24858;BME280;12935;50.782;6.074;2023-08-01T10:10:38;98097.63;;;18.27;100.00
24858;BME280;12935;50.782;6.074;2023-08-01T10:13:04;98099.59;;;18.41;100.00
24858;BME280;12935;50.782;6.074;2023-08-01T10:15:30;98089.16;;;19.06;100.00
24858;BME280;12935;50.782;6.074;2023-08-01T10:17:56;98095.56;;;19.38;100.00
24858;BME280;12935;50.782;6.074;2023-08-01T10:20:22;98076.16;;;19.58;100.00
24858;BME280;12935;50.782;6.074;2023-08-01T10:22:48;98080.63;;;19.76;100.00
24858;BME280;12935;50.782;6.074;2023-08-01T10:25:16;98085.63;;;20.04;100.00
24858;BME280;12935;50.782;6.074;2023-08-01T10:27:41;98067.25;;;20.06;100.00
24858;BME280;12935;50.782;6.074;2023-08-01T10:30:07;98076.66;;;20.51;100.00
24858;BME280;12935;50.782;6.074;2023-08-01T10:32:39;98073.53;;;20.75;100.00
24858;BME280;12935;50.782;6.074;2023-08-01T10:35:05;98094.25;;;20.37;100.00
24858;BME280;12935;50.782;6.074;2023-08-01T10:37:41;98090.63;;;20.31;100.00
24858;BME280;12935;50.782;6.074;2023-08-01T10:40:07;98078.69;;;19.88;100.00
24858;BME280;12935;50.782;6.074;2023-08-01T10:42:40;98088.28;;;19.61;100.00
24858;BME280;12935;50.782;6.074;2023-08-01T10:45:07;98102.03;;;19.30;100.00
24858;BME280;12935;50.782;6.074;2023-08-01T10:47:32;98095.63;;;19.44;100.00
24858;BME280;12935;50.782;6.074;2023-08-01T10:49:58;98093.94;;;19.72;100.00
24858;BME280;12935;50.782;6.074;2023-08-01T10:52:26;98101.91;;;20.22;100.00
24858;BME280;12935;50.782;6.074;2023-08-01T10:55:00;98101.69;;;20.57;100.00
24858;BME280;12935;50.782;6.074;2023-08-01T10:57:27;98092.28;;;20.97;100.00
24858;BME280;12935;50.782;6.074;2023-08-01T10:59:55;98098.81;;;21.48;100.00
24858;BME280;12935;50.782;6.074;2023-08-01T11:02:24;98097.38;;;21.86;100.00
24858;BME280;12935;50.782;6.074;2023-08-01T11:07:25;98096.41;;;22.11;98.71
24858;BME280;12935;50.782;6.074;2023-08-01T11:10:09;98102.22;;;22.13;98.72
24858;BME280;12935;50.782;6.074;2023-08-01T11:12:38;98107.75;;;21.85;100.00
24858;BME280;12935;50.782;6.074;2023-08-01T11:15:05;98110.47;;;21.63;100.00
24858;BME280;12935;50.782;6.074;2023-08-01T11:17:33;98109.91;;;21.42;100.00
24858;BME280;12935;50.782;6.074;2023-08-01T11:20:03;98107.72;;;20.98;100.00
24858;BME280;12935;50.782;6.074;2023-08-01T11:22:29;98105.78;;;20.67;100.00
24858;BME280;12935;50.782;6.074;2023-08-01T11:24:55;98122.81;;;20.49;100.00
24858;BME280;12935;50.782;6.074;2023-08-01T11:27:20;98126.63;;;20.51;100.00
24858;BME280;12935;50.782;6.074;2023-08-01T11:29:46;98129.59;;;20.16;100.00
24858;BME280;12935;50.782;6.074;2023-08-01T11:32:11;98139.53;;;19.97;100.00
24858;BME280;12935;50.782;6.074;2023-08-01T11:34:41;98135.69;;;20.20;100.00
24858;BME280;12935;50.782;6.074;2023-08-01T11:37:10;98131.03;;;20.06;100.00
24858;BME280;12935;50.782;6.074;2023-08-01T11:39:36;98140.63;;;20.37;100.00
24858;BME280;12935;50.782;6.074;2023-08-01T11:42:01;98137.13;;;20.73;100.00
24858;BME280;12935;50.782;6.074;2023-08-01T11:44:28;98146.97;;;20.74;100.00
24858;BME280;12935;50.782;6.074;2023-08-01T11:46:53;98154.47;;;20.05;100.00
24858;BME280;12935;50.782;6.074;2023-08-01T11:49:19;98153.00;;;20.10;100.00
24858;BME280;12935;50.782;6.074;2023-08-01T11:51:44;98151.00;;;20.10;100.00
24858;BME280;12935;50.782;6.074;2023-08-01T11:54:11;98146.94;;;20.37;100.00
24858;BME280;12935;50.782;6.074;2023-08-01T11:56:39;98146.44;;;20.70;100.00
24858;BME280;12935;50.782;6.074;2023-08-01T11:59:09;98146.13;;;21.05;100.00
24858;BME280;12935;50.782;6.074;2023-08-01T12:01:46;98143.41;;;20.37;100.00
24858;BME280;12935;50.782;6.074;2023-08-01T12:04:23;98154.50;;;20.68;100.00
24858;BME280;12935;50.782;6.074;2023-08-01T12:06:48;98147.66;;;21.06;98.02
24858;BME280;12935;50.782;6.074;2023-08-01T12:09:13;98149.22;;;21.18;94.93
24858;BME280;12935;50.782;6.074;2023-08-01T12:11:40;98143.97;;;20.46;97.22
24858;BME280;12935;50.782;6.074;2023-08-01T12:14:10;98137.78;;;20.62;100.00
24858;BME280;12935;50.782;6.074;2023-08-01T12:16:37;98132.88;;;20.78;97.40
24858;BME280;12935;50.782;6.074;2023-08-01T12:19:03;98146.22;;;21.22;97.10
24858;BME280;12935;50.782;6.074;2023-08-01T12:21:30;98141.56;;;21.61;95.41
24858;BME280;12935;50.782;6.074;2023-08-01T12:23:55;98146.72;;;22.24;92.03
24858;BME280;12935;50.782;6.074;2023-08-01T12:26:20;98150.53;;;22.49;87.56
24858;BME280;12935;50.782;6.074;2023-08-01T12:28:46;98158.06;;;22.88;82.58
24858;BME280;12935;50.782;6.074;2023-08-01T12:31:16;98153.16;;;23.27;80.99
24858;BME280;12935;50.782;6.074;2023-08-01T12:33:41;98144.03;;;23.79;77.42
24858;BME280;12935;50.782;6.074;2023-08-01T12:36:06;98153.41;;;24.23;72.10
24858;BME280;12935;50.782;6.074;2023-08-01T12:38:32;98142.63;;;24.38;71.36
24858;BME280;12935;50.782;6.074;2023-08-01T12:40:57;98144.38;;;24.95;69.55
24858;BME280;12935;50.782;6.074;2023-08-01T12:43:22;98152.31;;;24.31;68.53
24858;BME280;12935;50.782;6.074;2023-08-01T12:45:47;98132.97;;;24.69;69.41
24858;BME280;12935;50.782;6.074;2023-08-01T12:48:13;98132.31;;;25.06;66.74
24858;BME280;12935;50.782;6.074;2023-08-01T12:50:43;98136.13;;;26.02;63.98